Time;durP1;ratioP1;P1;durP2;ratioP2;P2;SDS_P1;SDS_P2;PMS_P1;PMS_P2;Temp;Humidity;BMP_temperature;BMP_pressure;BME280_temperature;BME280_humidity;BME280_pressure;Samples;Min_cycle;Max_cycle;Signal;HPM_P1;HPM_P2
2023/10/18 00:00:28;;;;;;;10.07;1.10;;;;;;;14.13;72.69;100292.38;7353723;19;20014;-67
2023/10/18 00:02:56;;;;;;;6.13;0.82;;;;;;;14.17;72.56;100292.00;7355080;19;20022;-67
2023/10/18 00:05:25;;;;;;;10.50;1.00;;;;;;;14.12;72.85;100281.97;7357462;19;20022;-67
2023/10/18 00:07:54;;;;;;;7.25;1.05;;;;;;;14.11;73.13;100278.53;7358616;19;20468;-67
2023/10/18 00:10:21;;;;;;;9.88;1.48;;;;;;;14.12;73.21;100274.84;7355953;19;20561;-67
2023/10/18 00:12:49;;;;;;;6.78;0.80;;;;;;;14.09;72.96;100272.59;7358735;19;20010;-67
2023/10/18 00:15:16;;;;;;;8.85;1.00;;;;;;;14.08;73.06;100280.72;7354486;19;20601;-67
2023/10/18 00:17:44;;;;;;;3.22;1.10;;;;;;;14.07;73.20;100265.84;7359672;19;20166;-65
2023/10/18 00:20:15;;;;;;;7.20;0.90;;;;;;;14.10;73.35;100261.03;7354644;19;20038;-68
2023/10/18 00:22:44;;;;;;;8.20;0.93;;;;;;;14.14;73.20;100262.28;7359929;19;20014;-65
2023/10/18 00:25:12;;;;;;;9.48;1.42;;;;;;;14.12;73.17;100245.75;7357019;19;20616;-67
2023/10/18 00:27:41;;;;;;;7.22;0.85;;;;;;;14.19;73.15;100245.00;7357820;19;20085;-66
2023/10/18 00:30:11;;;;;;;11.35;1.05;;;;;;;14.21;72.82;100237.69;7354938;19;20538;-67
2023/10/18 00:32:39;;;;;;;6.00;0.95;;;;;;;14.19;72.86;100255.56;7358778;19;20054;-67
2023/10/18 00:35:16;;;;;;;7.65;1.05;;;;;;;14.20;72.76;100242.16;7353670;19;20019;-66
2023/10/18 00:37:44;;;;;;;5.40;0.95;;;;;;;14.19;73.43;100242.34;7357522;19;20296;-66
2023/10/18 00:40:33;;;;;;;6.72;0.90;;;;;;;14.15;73.31;100239.28;7356568;19;20018;-66
2023/10/18 00:43:26;;;;;;;5.70;1.08;;;;;;;14.10;73.55;100229.28;7355397;19;20028;-67
2023/10/18 00:45:54;;;;;;;6.82;0.85;;;;;;;14.10;73.40;100231.09;7357334;19;20015;-67
2023/10/18 00:48:28;;;;;;;8.77;0.88;;;;;;;14.14;74.72;100225.22;7355530;19;20491;-67
2023/10/18 00:50:57;;;;;;;10.70;1.02;;;;;;;14.09;73.46;100224.97;7356296;19;20039;-67
2023/10/18 00:53:25;;;;;;;8.80;1.33;;;;;;;14.16;73.41;100229.50;7359220;19;20023;-67
2023/10/18 00:56:01;;;;;;;4.95;1.13;;;;;;;14.10;73.51;100225.81;7356804;19;20506;-66
2023/10/18 00:58:29;;;;;;;4.45;0.70;;;;;;;14.04;73.84;100221.25;7352617;19;20018;-65
2023/10/18 01:00:59;;;;;;;5.93;1.10;;;;;;;14.04;73.89;100226.56;7352539;19;20082;-66
2023/10/18 01:03:29;;;;;;;6.90;1.00;;;;;;;14.11;73.52;100220.31;7356843;19;20025;-67
2023/10/18 01:06:05;;;;;;;6.75;1.05;;;;;;;14.10;74.09;100223.97;7356787;19;20530;-66
2023/10/18 01:08:37;;;;;;;6.32;1.15;;;;;;;14.07;73.96;100221.69;7356242;19;20011;-66
2023/10/18 01:11:07;;;;;;;5.93;1.10;;;;;;;14.10;74.10;100208.09;7353958;19;20030;-67
2023/10/18 01:13:40;;;;;;;4.65;1.50;;;;;;;14.11;74.21;100195.69;7354666;19;20052;-66
2023/10/18 01:16:34;;;;;;;4.03;0.82;;;;;;;14.09;73.82;100182.66;7356271;19;20015;-67
2023/10/18 01:18:57;;;;;;;4.45;1.08;;;;;;;14.05;73.79;100191.97;7356338;19;20058;-67
2023/10/18 01:21:28;;;;;;;7.07;1.08;;;;;;;14.01;74.43;100184.63;7355908;19;20537;-67
2023/10/18 01:23:59;;;;;;;9.82;1.23;;;;;;;14.03;74.23;100180.75;7354276;19;20539;-66
2023/10/18 01:26:28;;;;;;;3.50;1.08;;;;;;;14.01;74.55;100166.94;7356459;19;20114;-65
2023/10/18 01:29:09;;;;;;;4.70;1.23;;;;;;;14.03;74.90;100164.88;7347106;19;20094;-66
2023/10/18 01:31:48;;;;;;;5.80;1.00;;;;;;;14.04;74.62;100165.72;7349226;19;20124;-66
2023/10/18 01:34:16;;;;;;;6.18;1.30;;;;;;;14.01;74.84;100153.69;7340297;19;20475;-66
2023/10/18 01:36:43;;;;;;;8.27;1.10;;;;;;;13.99;74.70;100160.19;7353711;19;20014;-66
2023/10/18 01:39:18;;;;;;;5.70;1.20;;;;;;;14.04;74.92;100155.13;7353982;19;20025;-67
2023/10/18 01:41:50;;;;;;;6.00;1.13;;;;;;;14.03;75.00;100154.31;7354980;19;20494;-67
2023/10/18 01:44:33;;;;;;;8.48;1.45;;;;;;;13.96;75.19;100147.34;7353780;19;20014;-66
2023/10/18 01:47:07;;;;;;;8.27;2.35;;;;;;;13.95;75.07;100143.88;7357225;19;20430;-66
2023/10/18 01:49:46;;;;;;;9.27;1.40;;;;;;;13.96;76.08;100140.22;7351907;19;20027;-66
2023/10/18 01:52:17;;;;;;;5.40;1.25;;;;;;;13.97;75.68;100144.50;7330108;19;20183;-66
2023/10/18 01:54:46;;;;;;;3.85;1.40;;;;;;;13.99;75.91;100134.53;7352759;19;20018;-67
2023/10/18 01:57:15;;;;;;;6.90;1.08;;;;;;;13.97;76.25;100123.31;7355013;19;20010;-66
2023/10/18 01:59:41;;;;;;;7.07;1.00;;;;;;;13.99;76.26;100123.16;7354069;19;20511;-67
2023/10/18 02:02:11;;;;;;;7.90;1.13;;;;;;;13.99;76.19;100116.03;7348232;19;20014;-66
2023/10/18 02:04:42;;;;;;;4.43;1.48;;;;;;;14.01;76.41;100113.19;7355733;19;20106;-66
2023/10/18 02:07:19;;;;;;;10.45;1.30;;;;;;;14.05;76.73;100104.69;7353521;19;20536;-66
2023/10/18 02:09:49;;;;;;;6.20;1.00;;;;;;;14.02;76.23;100096.28;7354388;19;20979;-66
2023/10/18 02:12:20;;;;;;;7.32;1.35;;;;;;;14.01;76.46;100094.69;7352581;19;20014;-66
2023/10/18 02:14:51;;;;;;;5.82;1.30;;;;;;;14.02;76.64;100083.88;7356256;19;21355;-67
2023/10/18 02:17:18;;;;;;;8.40;1.50;;;;;;;14.00;76.30;100080.63;7351856;19;20451;-67
2023/10/18 02:19:46;;;;;;;6.90;1.50;;;;;;;13.98;76.54;100071.25;7353492;19;20006;-67
2023/10/18 02:22:16;;;;;;;5.75;1.33;;;;;;;13.99;76.63;100076.34;7354784;19;20732;-67
2023/10/18 02:24:43;;;;;;;6.43;1.08;;;;;;;14.00;77.00;100070.06;7357921;19;20121;-67
2023/10/18 02:27:19;;;;;;;6.10;1.00;;;;;;;14.00;76.87;100056.00;7360849;19;20018;-67
2023/10/18 02:29:47;;;;;;;7.80;1.30;;;;;;;14.03;76.95;100055.59;7363890;19;20032;-67
2023/10/18 02:35:11;;;;;;;10.52;1.30;;;;;;;14.03;77.34;100022.03;7358957;19;20059;-66
2023/10/18 02:37:38;;;;;;;6.15;1.20;;;;;;;14.03;77.59;100015.94;7360096;19;20018;-67
2023/10/18 02:40:08;;;;;;;9.95;1.48;;;;;;;14.06;77.65;100010.28;7354916;19;20022;-67
2023/10/18 02:42:36;;;;;;;7.53;1.30;;;;;;;14.03;78.05;100003.53;7358499;19;20019;-67
2023/10/18 02:45:12;;;;;;;7.05;1.20;;;;;;;14.00;78.06;99984.59;7360150;19;20376;-67
2023/10/18 02:47:40;;;;;;;9.27;2.28;;;;;;;14.02;78.43;99998.41;7357650;19;20039;-67
2023/10/18 02:50:08;;;;;;;5.53;1.08;;;;;;;13.95;78.64;99998.41;7359145;19;20018;-66
2023/10/18 02:52:35;;;;;;;6.50;1.23;;;;;;;13.96;79.15;99999.22;7354576;19;20015;-66
2023/10/18 02:55:02;;;;;;;5.68;1.30;;;;;;;13.98;79.35;99987.44;7362641;19;20017;-67
2023/10/18 02:57:32;;;;;;;11.02;1.48;;;;;;;13.99;79.53;99978.47;7359455;19;20014;-66
2023/10/18 03:00:09;;;;;;;5.13;1.25;;;;;;;14.01;79.73;99978.28;7357949;19;20019;-66
2023/10/18 03:02:38;;;;;;;7.68;1.13;;;;;;;13.99;79.67;99980.31;7352984;19;21900;-67
2023/10/18 03:05:06;;;;;;;7.47;1.00;;;;;;;13.98;80.17;99982.13;7360307;19;20007;-66
2023/10/18 03:07:36;;;;;;;7.35;1.30;;;;;;;13.97;80.47;99977.84;7359731;19;20025;-67
2023/10/18 03:10:17;;;;;;;7.72;1.42;;;;;;;13.99;80.46;99970.56;7361298;19;20455;-67
2023/10/18 03:12:44;;;;;;;4.80;1.00;;;;;;;13.98;80.83;99970.72;7358761;19;20006;-67
2023/10/18 03:15:17;;;;;;;5.70;1.30;;;;;;;14.04;80.90;99980.53;7359299;19;20038;-67
2023/10/18 03:17:48;;;;;;;9.90;1.52;;;;;;;14.01;80.96;99965.06;7356701;19;20791;-66
2023/10/18 03:20:24;;;;;;;8.05;1.13;;;;;;;14.05;81.57;99961.84;7357750;19;20015;-67
2023/10/18 03:22:52;;;;;;;7.68;1.60;;;;;;;14.04;81.50;99960.19;7361300;19;20111;-66
2023/10/18 03:25:30;;;;;;;8.30;1.48;;;;;;;14.09;81.06;99955.13;7359438;19;20035;-66
2023/10/18 03:27:57;;;;;;;9.85;1.58;;;;;;;14.11;81.29;99955.75;7355197;19;21280;-66
2023/10/18 03:30:41;;;;;;;6.18;1.45;;;;;;;14.06;81.29;99952.88;7360726;19;20056;-66
2023/10/18 03:33:11;;;;;;;6.43;1.48;;;;;;;14.15;81.53;99950.88;7356020;19;20014;-66
2023/10/18 03:35:40;;;;;;;9.23;1.00;;;;;;;14.12;81.59;99938.03;7359629;19;20022;-66
2023/10/18 03:38:16;;;;;;;8.73;2.38;;;;;;;14.15;81.58;99937.66;7355051;19;21155;-67
2023/10/18 03:40:47;;;;;;;8.25;1.42;;;;;;;14.20;81.65;99934.41;7360445;19;20033;-65
2023/10/18 03:43:15;;;;;;;6.13;1.25;;;;;;;14.20;82.00;99929.13;7355499;19;20086;-68
2023/10/18 03:48:39;;;;;;;7.75;1.25;;;;;;;14.14;82.42;99913.03;7353595;19;20023;-66
2023/10/18 03:51:07;;;;;;;5.60;1.35;;;;;;;14.11;82.71;99908.13;7357731;19;20313;-66
2023/10/18 03:53:34;;;;;;;8.23;1.23;;;;;;;14.13;82.88;99905.28;7354464;19;20077;-66
2023/10/18 03:56:04;;;;;;;6.22;1.10;;;;;;;14.14;83.11;99904.28;7356491;19;20373;-67
2023/10/18 03:58:34;;;;;;;8.55;1.50;;;;;;;14.11;83.26;99899.38;7357956;19;20037;-66
2023/10/18 04:01:02;;;;;;;13.85;1.90;;;;;;;14.16;83.41;99896.16;7358808;19;20554;-67
2023/10/18 04:03:29;;;;;;;6.32;1.30;;;;;;;14.17;83.94;99892.50;7350001;19;20014;-66
2023/10/18 04:06:08;;;;;;;10.40;1.45;;;;;;;14.14;83.68;99883.91;7358863;19;20049;-66
2023/10/18 04:08:36;;;;;;;5.55;1.10;;;;;;;14.14;84.02;99878.63;7355455;19;20010;-66
2023/10/18 04:11:04;;;;;;;6.65;1.50;;;;;;;14.22;83.88;99874.97;7360186;19;21133;-66
2023/10/18 04:13:31;;;;;;;7.18;1.50;;;;;;;14.19;84.67;99877.22;7356502;19;20056;-66
2023/10/18 04:16:28;;;;;;;6.00;1.10;;;;;;;14.20;84.56;99873.56;7359359;19;20384;-66
2023/10/18 04:18:47;;;;;;;5.07;2.10;;;;;;;14.20;84.83;99866.44;7350034;19;20018;-66
2023/10/18 04:21:15;;;;;;;8.90;1.35;;;;;;;14.19;84.78;99862.16;7360684;19;20031;-67
2023/10/18 04:23:46;;;;;;;10.15;1.88;;;;;;;14.17;84.79;99858.09;7358427;19;20406;-67
2023/10/18 04:26:18;;;;;;;13.38;1.23;;;;;;;14.17;84.83;99845.66;7358059;19;20044;-68
2023/10/18 04:29:10;;;;;;;8.48;1.10;;;;;;;14.19;84.76;99851.56;7355393;19;20034;-66
2023/10/18 04:31:56;;;;;;;9.02;1.50;;;;;;;14.19;85.33;99843.63;7357864;19;20397;-67
2023/10/18 04:34:29;;;;;;;5.88;1.00;;;;;;;14.21;85.36;99846.09;7354297;19;20018;-67
2023/10/18 04:36:59;;;;;;;10.88;1.40;;;;;;;14.21;85.23;99849.56;7357476;19;20026;-66
2023/10/18 04:39:28;;;;;;;6.95;1.48;;;;;;;14.26;85.24;99844.47;7357009;19;20590;-66
2023/10/18 04:41:55;;;;;;;6.43;1.33;;;;;;;14.31;85.43;99841.22;7360011;19;20026;-66
2023/10/18 04:44:23;;;;;;;8.23;1.38;;;;;;;14.31;85.24;99839.41;7356967;19;20046;-67
2023/10/18 04:46:52;;;;;;;7.05;1.50;;;;;;;14.31;85.50;99828.81;7358593;19;20019;-67
2023/10/18 04:49:38;;;;;;;9.07;1.92;;;;;;;14.33;85.58;99823.28;7348710;19;20030;-67
2023/10/18 04:52:08;;;;;;;4.85;0.93;;;;;;;14.32;85.47;99825.16;7358623;19;20029;-67
2023/10/18 04:54:41;;;;;;;8.85;1.20;;;;;;;14.32;85.73;99816.41;7354709;19;20014;-67
2023/10/18 04:57:11;;;;;;;7.32;1.58;;;;;;;14.40;85.79;99808.28;7354325;19;20026;-65
2023/10/18 04:59:45;;;;;;;10.35;1.80;;;;;;;14.47;85.34;99803.81;7358990;19;20507;-65
2023/10/18 05:02:26;;;;;;;10.10;1.90;;;;;;;14.47;85.44;99809.09;7351141;19;20017;-67
2023/10/18 05:04:55;;;;;;;10.00;1.85;;;;;;;14.39;85.88;99796.06;7356210;19;20026;-67
2023/10/18 05:07:38;;;;;;;6.55;1.30;;;;;;;14.41;86.01;99796.69;7353006;19;20018;-67
2023/10/18 05:10:14;;;;;;;9.27;1.98;;;;;;;14.46;85.86;99788.94;7356288;19;20093;-67
2023/10/18 05:13:01;;;;;;;5.97;1.40;;;;;;;14.46;86.21;99783.66;7357759;19;20222;-66
2023/10/18 05:15:29;;;;;;;12.27;1.48;;;;;;;14.46;86.73;99776.53;7357579;19;20019;-66
2023/10/18 05:18:06;;;;;;;9.80;1.70;;;;;;;14.48;86.27;99771.00;7350391;19;20487;-66
2023/10/18 05:20:46;;;;;;;7.55;1.92;;;;;;;14.41;86.71;99763.09;7358344;19;20090;-66
2023/10/18 05:23:21;;;;;;;8.57;1.75;;;;;;;14.44;86.83;99759.19;7355329;19;20438;-66
2023/10/18 05:28:27;;;;;;;8.32;1.70;;;;;;;14.41;87.29;99762.28;7354726;19;20025;-66
2023/10/18 05:33:57;;;;;;;9.88;2.22;;;;;;;14.39;87.97;99743.13;7346237;19;21270;-67
2023/10/18 05:38:52;;;;;;;9.35;1.85;;;;;;;14.46;87.94;99733.34;7356131;19;20422;-66
2023/10/18 05:41:34;;;;;;;8.43;2.10;;;;;;;14.41;87.89;99739.25;7357277;19;20097;-66
2023/10/18 05:44:02;;;;;;;10.95;1.88;;;;;;;14.41;88.12;99747.22;7356425;19;20526;-67
2023/10/18 05:46:34;;;;;;;10.07;1.73;;;;;;;14.45;87.55;99729.06;7356050;19;20731;-66
2023/10/18 05:49:01;;;;;;;10.25;2.63;;;;;;;14.46;87.70;99728.88;7350170;19;20014;-66
2023/10/18 05:51:37;;;;;;;13.27;2.08;;;;;;;14.47;87.96;99729.69;7356241;19;20022;-66
2023/10/18 05:54:05;;;;;;;11.77;2.78;;;;;;;14.45;88.16;99737.84;7354633;19;20022;-66
2023/10/18 05:56:33;;;;;;;11.43;2.50;;;;;;;14.40;88.40;99731.53;7357733;19;20019;-66
2023/10/18 06:01:51;;;;;;;12.82;3.63;;;;;;;14.38;88.47;99728.25;7364271;19;20046;-66
2023/10/18 06:04:24;;;;;;;7.13;2.10;;;;;;;14.38;88.61;99725.59;7350640;19;20404;-65
2023/10/18 06:06:59;;;;;;;7.85;2.00;;;;;;;14.36;88.53;99723.19;7359481;19;20014;-67
2023/10/18 06:09:26;;;;;;;8.45;2.65;;;;;;;14.38;88.59;99730.91;7362454;19;20349;-66
2023/10/18 06:11:55;;;;;;;10.80;2.03;;;;;;;14.37;88.42;99722.19;7362757;19;20029;-67
2023/10/18 06:14:25;;;;;;;6.53;1.80;;;;;;;14.37;88.51;99716.06;7362913;19;20021;-66
2023/10/18 06:17:06;;;;;;;11.57;2.63;;;;;;;14.39;88.28;99717.47;7363309;19;20014;-67
2023/10/18 06:19:36;;;;;;;11.93;2.13;;;;;;;14.41;88.16;99711.97;7361016;19;20018;-67
2023/10/18 06:22:15;;;;;;;10.05;2.30;;;;;;;14.44;88.56;99712.38;7362880;19;20031;-66
2023/10/18 06:24:48;;;;;;;11.27;1.80;;;;;;;14.45;88.33;99711.38;7363109;19;20758;-66
2023/10/18 06:27:16;;;;;;;10.05;1.95;;;;;;;14.46;88.08;99714.81;7361944;19;20017;-66
2023/10/18 06:29:45;;;;;;;9.27;2.15;;;;;;;14.45;87.97;99711.38;7363182;19;20705;-68
2023/10/18 06:32:15;;;;;;;10.63;2.20;;;;;;;14.47;88.02;99703.22;7361637;19;22022;-67
2023/10/18 06:34:45;;;;;;;10.45;2.20;;;;;;;14.42;87.40;99695.09;7360905;19;20018;-66
2023/10/18 06:40:22;;;;;;;10.20;2.67;;;;;;;14.50;87.00;99681.63;7359329;19;20018;-67
2023/10/18 06:42:50;;;;;;;8.68;2.45;;;;;;;14.46;86.07;99673.28;7361029;19;20081;-67
2023/10/18 06:45:18;;;;;;;10.70;2.22;;;;;;;14.46;85.96;99649.47;7361775;19;20039;-67
2023/10/18 06:47:45;;;;;;;8.50;2.40;;;;;;;14.46;86.41;99651.31;7356047;19;20518;-66
2023/10/18 06:50:19;;;;;;;13.35;2.63;;;;;;;14.46;86.21;99630.13;7359154;19;20021;-66
2023/10/18 06:52:58;;;;;;;7.93;2.05;;;;;;;14.45;85.88;99629.31;7359687;19;20459;-66
2023/10/18 07:00:54;;;;;;;11.48;2.45;;;;;;;14.41;86.24;99632.59;7363566;19;20086;-67
2023/10/18 07:03:25;;;;;;;9.55;2.53;;;;;;;14.44;85.89;99626.88;7358642;19;20015;-66
2023/10/18 07:05:52;;;;;;;9.52;2.17;;;;;;;14.40;85.44;99625.66;7353318;19;20595;-67
2023/10/18 07:08:19;;;;;;;6.95;2.40;;;;;;;14.45;86.05;99626.66;7359348;19;20426;-66
2023/10/18 07:10:54;;;;;;;14.38;2.50;;;;;;;14.43;85.59;99623.41;7357609;19;20023;-67
2023/10/18 07:13:46;;;;;;;8.93;2.40;;;;;;;14.44;85.27;99629.50;7359488;19;20598;-66
2023/10/18 07:21:46;;;;;;;11.57;2.78;;;;;;;14.50;84.56;99599.56;7361921;19;20019;-66
2023/10/18 07:24:13;;;;;;;9.77;2.10;;;;;;;14.48;84.52;99589.19;7359630;19;20022;-67
2023/10/18 07:26:41;;;;;;;11.25;2.80;;;;;;;14.50;84.18;99591.63;7360211;19;20022;-66
2023/10/18 07:29:09;;;;;;;9.68;2.95;;;;;;;14.53;83.77;99584.06;7353589;19;20044;-66
2023/10/18 07:31:44;;;;;;;13.38;3.00;;;;;;;14.58;83.16;99587.94;7360931;19;20033;-66
2023/10/18 07:34:18;;;;;;;9.20;2.95;;;;;;;14.57;83.14;99581.84;7355260;19;20400;-66
2023/10/18 07:36:46;;;;;;;7.22;2.63;;;;;;;14.59;82.89;99587.72;7356637;19;20021;-66
2023/10/18 07:39:16;;;;;;;12.07;3.28;;;;;;;14.61;82.96;99579.59;7358004;19;20006;-67
2023/10/18 07:41:43;;;;;;;5.90;2.88;;;;;;;14.59;82.72;99589.56;7363222;19;20017;-67
2023/10/18 07:44:10;;;;;;;12.27;3.97;;;;;;;14.60;82.97;99580.59;7362323;19;20250;-68
2023/10/18 07:46:41;;;;;;;8.75;2.92;;;;;;;14.57;82.79;99575.72;7365111;19;20030;-67
2023/10/18 07:49:14;;;;;;;9.57;3.30;;;;;;;14.57;82.89;99570.44;7354525;19;20010;-67
2023/10/18 07:51:48;;;;;;;8.80;2.97;;;;;;;14.57;82.90;99576.53;7360580;19;20544;-67
2023/10/18 07:54:17;;;;;;;12.15;2.88;;;;;;;14.57;82.84;99571.25;7361744;19;20018;-67
2023/10/18 07:56:52;;;;;;;14.38;3.72;;;;;;;14.59;82.84;99558.59;7366144;19;20035;-68
2023/10/18 07:59:27;;;;;;;11.20;3.72;;;;;;;14.57;82.85;99558.00;7356705;19;20021;-66
2023/10/18 08:02:13;;;;;;;11.05;3.67;;;;;;;14.67;82.38;99557.56;7358042;19;20226;-66
2023/10/18 08:04:43;;;;;;;16.25;3.72;;;;;;;14.70;82.29;99542.06;7357991;19;20015;-68
2023/10/18 08:07:15;;;;;;;11.88;4.38;;;;;;;14.71;82.67;99558.75;7353880;19;20023;-69
2023/10/18 08:09:43;;;;;;;11.63;3.95;;;;;;;14.66;81.93;99554.09;7358673;19;20031;-66
2023/10/18 08:15:13;;;;;;;16.23;3.70;;;;;;;14.62;82.12;99531.72;7356209;19;20010;-67
2023/10/18 08:23:05;;;;;;;9.95;3.47;;;;;;;14.63;82.22;99514.00;7357919;19;20014;-66
2023/10/18 08:25:32;;;;;;;13.40;3.38;;;;;;;14.58;82.12;99509.31;7359405;19;20365;-67
2023/10/18 08:28:02;;;;;;;16.88;4.10;;;;;;;14.57;82.00;99504.25;7355170;19;20050;-67
2023/10/18 08:31:02;;;;;;;11.85;3.92;;;;;;;14.60;81.87;99495.88;7357543;19;20011;-68
2023/10/18 08:33:26;;;;;;;13.77;5.53;;;;;;;14.68;81.95;99498.28;7354244;19;20038;-68
2023/10/18 08:35:58;;;;;;;11.75;4.07;;;;;;;14.69;81.82;99507.84;7358604;19;20015;-67
2023/10/18 08:38:26;;;;;;;13.47;3.60;;;;;;;14.68;81.51;99498.28;7357196;19;21870;-66
2023/10/18 08:41:11;;;;;;;12.13;3.38;;;;;;;14.70;82.07;99491.75;7358819;19;20297;-66
2023/10/18 08:43:50;;;;;;;15.52;4.20;;;;;;;14.72;81.84;99483.59;7356712;19;20014;-66
2023/10/18 08:46:24;;;;;;;15.82;4.40;;;;;;;14.69;81.62;99484.81;7356436;19;20020;-66
2023/10/18 08:48:54;;;;;;;13.18;3.88;;;;;;;14.74;81.69;99471.75;7351149;19;20029;-65
2023/10/18 08:51:26;;;;;;;15.57;3.78;;;;;;;14.78;81.82;99462.34;7354698;19;20015;-66
2023/10/18 08:53:56;;;;;;;12.38;3.80;;;;;;;14.87;80.58;99453.16;7357318;19;20594;-67
2023/10/18 08:56:29;;;;;;;8.82;3.83;;;;;;;14.92;80.01;99452.50;7358344;19;20019;-66
2023/10/18 08:58:58;;;;;;;12.73;3.75;;;;;;;14.92;80.26;99436.63;7356383;19;20046;-66
2023/10/18 09:01:25;;;;;;;9.75;3.55;;;;;;;14.87;80.33;99426.66;7358878;19;20027;-66
2023/10/18 09:03:55;;;;;;;16.25;3.78;;;;;;;14.91;80.28;99419.09;7351471;19;20514;-66
2023/10/18 09:06:23;;;;;;;13.05;3.50;;;;;;;14.93;80.03;99420.47;7353902;19;20018;-66
2023/10/18 09:11:48;;;;;;;16.13;3.97;;;;;;;15.04;79.48;99418.16;7353153;19;20082;-66
2023/10/18 09:14:16;;;;;;;11.90;3.95;;;;;;;15.01;79.63;99408.00;7356416;19;20052;-66
2023/10/18 09:16:46;;;;;;;13.48;4.07;;;;;;;14.97;79.72;99403.16;7356707;19;20010;-66
2023/10/18 09:19:13;;;;;;;14.25;3.70;;;;;;;15.05;79.69;99404.72;7353996;19;20010;-67
2023/10/18 09:24:11;;;;;;;10.73;4.03;;;;;;;15.04;80.41;99397.78;7355984;19;20399;-66
2023/10/18 09:26:41;;;;;;;11.82;3.78;;;;;;;15.01;79.96;99392.94;7356783;19;21188;-66
2023/10/18 09:29:10;;;;;;;14.57;4.10;;;;;;;14.92;80.68;99389.75;7355643;19;20566;-67
2023/10/18 09:31:54;;;;;;;12.57;3.80;;;;;;;14.93;81.64;99379.97;7353445;19;20014;-67
2023/10/18 09:34:23;;;;;;;10.25;3.88;;;;;;;14.87;81.17;99392.25;7350306;19;20048;-67
2023/10/18 09:36:56;;;;;;;13.20;3.72;;;;;;;14.92;81.59;99389.75;7358240;19;20019;-66
2023/10/18 09:39:42;;;;;;;13.23;3.70;;;;;;;14.91;81.34;99392.59;7352427;19;20039;-67
2023/10/18 09:42:15;;;;;;;10.98;3.55;;;;;;;14.92;80.93;99384.44;7357313;19;20533;-66
2023/10/18 09:44:43;;;;;;;13.20;3.75;;;;;;;14.94;81.45;99385.03;7356546;19;20015;-68
2023/10/18 09:47:10;;;;;;;13.43;4.00;;;;;;;14.94;81.52;99379.72;7353256;19;20181;-65
2023/10/18 09:49:41;;;;;;;10.40;3.85;;;;;;;15.03;81.57;99366.22;7353174;19;20025;-66
2023/10/18 09:52:11;;;;;;;13.70;4.03;;;;;;;15.08;81.58;99369.03;7357017;19;20018;-65
2023/10/18 09:54:50;;;;;;;11.65;3.63;;;;;;;15.22;81.31;99357.28;7355724;19;20263;-67
2023/10/18 09:57:26;;;;;;;13.25;3.70;;;;;;;15.26;81.42;99364.56;7357229;19;20029;-66
2023/10/18 09:59:57;;;;;;;11.45;3.67;;;;;;;15.36;80.90;99353.44;7353939;19;20190;-66
2023/10/18 10:02:25;;;;;;;15.10;3.80;;;;;;;15.36;80.46;99362.22;7354394;19;20022;-66
2023/10/18 10:05:04;;;;;;;11.02;3.60;;;;;;;15.32;79.64;99353.09;7345418;19;20191;-67
2023/10/18 10:07:38;;;;;;;8.52;3.20;;;;;;;15.26;80.24;99343.38;7347930;19;20381;-67
2023/10/18 10:10:09;;;;;;;13.63;3.50;;;;;;;15.24;80.77;99339.28;7348346;19;20182;-67
2023/10/18 10:12:41;;;;;;;18.35;3.75;;;;;;;15.16;81.86;99329.81;7352165;19;20034;-67
2023/10/18 10:15:17;;;;;;;13.52;3.28;;;;;;;15.13;82.33;99317.00;7349824;19;20463;-67
2023/10/18 10:18:00;;;;;;;11.13;3.20;;;;;;;15.14;81.98;99315.97;7351877;19;20010;-67
2023/10/18 10:20:40;;;;;;;10.60;3.60;;;;;;;15.06;82.34;99313.59;7353660;19;20019;-66
2023/10/18 10:23:17;;;;;;;8.55;2.80;;;;;;;15.07;82.89;99301.19;7353112;19;20031;-66
2023/10/18 10:26:16;;;;;;;13.55;3.55;;;;;;;15.20;84.38;99303.69;7353970;19;20039;-66
2023/10/18 10:31:56;;;;;;;16.27;4.10;;;;;;;15.25;85.58;99309.94;7354363;19;20024;-67
2023/10/18 10:34:26;;;;;;;15.80;4.00;;;;;;;15.27;86.07;99309.72;7351002;19;20047;-67
2023/10/18 10:37:05;;;;;;;16.08;4.25;;;;;;;15.23;86.09;99311.19;7356318;19;20309;-66
2023/10/18 10:39:36;;;;;;;15.27;3.58;;;;;;;15.20;85.44;99309.78;7355497;19;20021;-66
2023/10/18 10:42:19;;;;;;;9.23;3.40;;;;;;;15.19;85.67;99310.81;7357255;19;21686;-65
2023/10/18 10:45:10;;;;;;;9.68;4.40;;;;;;;15.22;86.29;99318.34;7355327;19;20534;-66
2023/10/18 10:47:43;;;;;;;19.42;3.97;;;;;;;15.26;86.47;99314.22;7358960;19;20043;-67
2023/10/18 10:50:45;;;;;;;8.98;3.78;;;;;;;15.27;86.67;99297.28;7359645;19;20490;-65
2023/10/18 10:53:44;;;;;;;15.50;3.92;;;;;;;15.26;84.55;99278.94;7361295;19;20914;-67
2023/10/18 10:56:20;;;;;;;8.07;3.13;;;;;;;15.25;84.24;99277.31;7360710;19;20697;-67
2023/10/18 11:01:57;;;;;;;13.98;3.95;;;;;;;15.21;84.19;99258.41;7342994;19;20319;-65
2023/10/18 11:04:29;;;;;;;12.77;4.35;;;;;;;15.17;84.54;99248.47;7354558;19;20014;-66
2023/10/18 11:07:01;;;;;;;12.68;4.00;;;;;;;15.17;83.68;99244.00;7357253;19;20461;-66
2023/10/18 11:09:50;;;;;;;10.85;4.30;;;;;;;15.20;83.42;99227.66;7353107;19;20247;-66
2023/10/18 11:12:18;;;;;;;13.77;3.40;;;;;;;15.20;83.75;99211.75;7357728;19;20514;-67
2023/10/18 11:14:50;;;;;;;9.50;4.13;;;;;;;15.20;83.62;99206.44;7359986;19;21291;-67
2023/10/18 11:17:17;;;;;;;11.02;3.80;;;;;;;15.24;84.00;99201.50;7352331;19;20105;-66
2023/10/18 11:19:53;;;;;;;15.07;3.60;;;;;;;15.26;84.08;99199.44;7358274;19;20562;-66
2023/10/18 11:22:29;;;;;;;11.65;2.90;;;;;;;15.25;84.05;99188.03;7359103;19;20034;-67
2023/10/18 11:24:59;;;;;;;18.00;5.20;;;;;;;15.23;83.97;99181.34;7357928;19;20043;-67
2023/10/18 11:27:33;;;;;;;11.25;4.00;;;;;;;15.29;84.21;99170.66;7358830;19;20010;-66
2023/10/18 11:30:24;;;;;;;9.93;3.42;;;;;;;15.29;83.60;99161.88;7361101;19;20046;-66
2023/10/18 11:32:55;;;;;;;15.73;3.90;;;;;;;15.25;83.15;99144.81;7355220;19;20022;-66
2023/10/18 11:35:43;;;;;;;15.00;4.97;;;;;;;15.25;83.47;99135.03;7357048;19;20021;-67
2023/10/18 11:38:13;;;;;;;11.82;4.28;;;;;;;15.28;84.21;99110.75;7358804;19;20018;-67
2023/10/18 11:40:44;;;;;;;14.23;4.10;;;;;;;15.33;84.68;99102.94;7361183;19;20022;-66
2023/10/18 11:43:11;;;;;;;10.68;3.53;;;;;;;15.30;84.11;99103.38;7360072;19;20342;-67
2023/10/18 11:45:40;;;;;;;9.57;3.72;;;;;;;15.31;84.29;99098.88;7362448;19;20011;-66
2023/10/18 11:48:14;;;;;;;14.25;3.85;;;;;;;15.32;85.06;99080.09;7357504;19;20010;-67
2023/10/18 11:50:42;;;;;;;13.77;3.60;;;;;;;15.34;84.59;99072.72;7356795;19;20025;-66
2023/10/18 11:53:14;;;;;;;13.23;3.97;;;;;;;15.31;85.22;99061.78;7356239;19;20010;-66
2023/10/18 11:56:01;;;;;;;14.90;4.40;;;;;;;15.32;84.77;99056.25;7359268;19;20010;-66
2023/10/18 11:58:34;;;;;;;14.63;3.42;;;;;;;15.31;85.26;99059.13;7357796;19;20086;-67
2023/10/18 12:01:18;;;;;;;14.57;4.07;;;;;;;15.31;85.07;99051.19;7359745;19;20014;-67
2023/10/18 12:03:48;;;;;;;15.85;3.67;;;;;;;15.39;85.59;99050.84;7354669;19;20909;-66
2023/10/18 12:06:20;;;;;;;15.77;4.30;;;;;;;15.43;84.89;99044.06;7356418;19;20017;-67
2023/10/18 12:09:07;;;;;;;15.98;3.80;;;;;;;15.48;84.84;99033.59;7351303;19;20016;-66
2023/10/18 12:11:35;;;;;;;11.43;3.65;;;;;;;15.48;84.49;99022.16;7357653;19;20022;-66
2023/10/18 12:14:04;;;;;;;12.05;4.18;;;;;;;15.47;84.54;99021.34;7354284;19;20039;-67
2023/10/18 12:16:34;;;;;;;12.63;3.60;;;;;;;15.47;84.99;99016.06;7358330;19;21000;-67
2023/10/18 12:19:01;;;;;;;13.02;3.88;;;;;;;15.47;84.81;99012.59;7354041;19;20015;-66
2023/10/18 12:21:31;;;;;;;18.58;4.60;;;;;;;15.46;84.87;99005.66;7358156;19;20028;-66
2023/10/18 12:24:02;;;;;;;11.90;3.20;;;;;;;15.59;84.35;99001.00;7356269;19;20025;-67
2023/10/18 12:26:34;;;;;;;10.43;4.03;;;;;;;15.60;84.23;98996.47;7358572;19;20081;-66
2023/10/18 12:29:14;;;;;;;13.77;3.88;;;;;;;15.55;83.81;98994.53;7356772;19;20010;-66
2023/10/18 12:31:52;;;;;;;11.60;4.00;;;;;;;15.56;83.87;98972.28;7358051;19;20027;-66
2023/10/18 12:34:28;;;;;;;8.20;4.00;;;;;;;15.55;83.95;98975.16;7353508;19;20021;-67
2023/10/18 12:36:57;;;;;;;10.25;3.58;;;;;;;15.53;84.24;98962.16;7358434;19;20018;-67
2023/10/18 12:39:25;;;;;;;13.35;4.50;;;;;;;15.56;83.90;98947.63;7356303;19;20014;-67
2023/10/18 12:41:53;;;;;;;10.85;3.72;;;;;;;15.55;83.70;98944.16;7356953;19;20011;-67